EGLL

London Heathrow Airport

London, United Kingdom
METAR EGLL 170620Z AUTO 29008KT 9999 SCT036 04/02 Q1006 TEMPO SHRA
Observed Flight Rules
Jan-17 @ 06:20 UTC (33 minutes ago) Visual Flight Rules
Wind Visibility Clouds
290° at 8 knots 10,000+ meters
  • Scattered at 3,600' AGL
Temperatures Readings
Current 4°C / 39°F
Dewpoint 2°C / 36°F
Humidity 87%
Altimeter 29.7" Hg
Pressure 1005.92 hPa
Elevation 24
METAR EGLL 170620Z AUTO 29008KT 9999 SCT036 04/02 Q1006 TEMPO SHRA
Observed Flight Rules
Jan-17 @ 06:20 UTC
(33 minutes ago)
VFR
Wind Visibility
290° at 8 knots 10,000+ meters
Clouds
  • Scattered at 3,600' AGL
Temperature Dewpoint
4°C / 39°F 2°C / 36°F
Humidity Altimeter Pressure
87% 29.7" Hg 1005.92 hPa